Grand Marais, MN

3:26 PM CDT on July 30, 2014 (GMT -0500)
Tucker Lake (KMNGRAND5) Elev 1870 ft | 48.06 °N, 90.67 °W | Change Station

Current weather conditions updated 10 seconds ago

Scattered Clouds
Scattered Clouds
70.1 °F
Feels Like 76 °F
N
8.0
Wind Variable Wind from North
Gusts 8.0 mph

Today is forecast to be nearly the same temperature as yesterday.

Today
High -- | Low -- °F
--% Chance of Precip.
Yesterday
High -- | Low -- °F
Precip. -- in
5:36 AM 8:41 PM
Waxing Crescent, 13% visible
Pressure 29.97 in
Visibility 10.0 miles
Clouds Scattered Clouds 4200 ft
Scattered Clouds 4800 ft
Heat Index 76 °F
Dew Point 56 °F
Humidity 62%
Rainfall 0.00 in
Snow Depth Not available.
UV 6 out of 12
Pollen 6.00 out of 12
Air Quality Not available.
Flu Activity Not available.
METAR KCKC 302013Z AUTO 35008KT 10SM SCT042 SCT048 19/13 A2997 RMK AO2

More Conditions Fewer Conditions

Pressure 29.97 in
Visibility 10.0 miles
Clouds Scattered Clouds 4200 ft
Scattered Clouds 4800 ft
Heat Index 76 °F
Dew Point 56 °F
Humidity 62%
Rainfall 0.00 in
Snow Depth Not available.
UV 6 out of 12
Pollen 6.00 out of 12
Air Quality Not available.
Flu Activity Not available.
METAR KCKC 302013Z AUTO 35008KT 10SM SCT042 SCT048 19/13 A2997 RMK AO2

More Conditions Fewer Conditions

10-Day Weather Forecast

Almanac

Astronomy

Jul. 30, 2014 Rise Set
Actual Time 5:36 AM CDT 8:41 PM CDT
Civil Twilight 4:59 AM CDT 9:17 PM CDT
Nautical Twilight 4:11 AM CDT 10:05 PM CDT
Astronomical Twilight 3:11 AM CDT 11:04 PM CDT
Moon 9:28 AM CDT 10:01 PM CDT
Length of Visible Light 16h 18m
Length of Day
15h 05m
Tomorrow will be 2m 39s shorter.
Waxing Crescent, 13% of the Moon is Illuminated
Today
Waxing Crescent
Aug 3
First Quarter
Aug 10
Full
Aug 17
Last Quarter
Aug 25
New

Today's Extremes

State Highs State Lows

Community

WunderPhotos

Upload Photos

1,739,182 photos uploaded!

WunderBlogs® & News

Nearby

Snow Depth

Station Depth Elevation
No new snow has been reported.

Earthquake Activity

City Distance Mag. Time & Date
No recent earthquake activity has been reported nearby.
Minimum magnitude displayed is 2.5.

Coastal Water Temperatures

Place Temperature
No Stations Reporting

Nearby Weather Stations

Station Location Temp. Heat Index Dew Point Humidity Wind Precip. Elev Updated Type
Tucker Lake, Grand Marais, MN 70.1 °F 76 °F 56 °F 62% North  at  8.0 mph 0.00 in / hr 1870 ft 3:26 PM CDT Rapid Fire
Hungry Jack Lake, BWCA, MN 72.7 °F 75 °F 62 °F 69% WSW  at  2.0 mph 0.00 in / hr 1698 ft 3:19 PM CDT Normal
RAWS SUPERIOR #1 MN, Croftville, MN 71 °F 75 °F 59 °F 66% South  at  4 mph 0.00 in / hr 1000 ft 2:39 PM CDT MADIS
SundewTech, Grand Marais, MN 61.2 °F - 52 °F 71% SSW  at  1.6 mph 0.00 in / hr 676 ft 3:25 PM CDT Rapid Fire

Show More Stations Show Fewer Stations